Station Historical Data
Daily Summary for February 15, 2017 Units:  Both    English   Metric
« Previous Day
Next Day »
Daily Weekly Monthly Yearly Custom
  High: Low: Average:
Temperature: 36.4 °F /  2.4 °C 23.4 °F /  -4.8 °C 31 °F /  -0.6 °C
Dew Point: 32.9 °F /  0.5 °C 19.1 °F /  -7.2 °C 26.9 °F /  -2.8 °C
Humidity: 92% 74% 85%
Wind Speed: 16.0mph /  25.7km/h - 5.1mph /  8.2km/h
Wind Gust: 21.0mph /  33.8km/h - -
Wind- - West
Pressure: 29.68 in /  1005 hPa 29.48 in /  998.2 hPa -
Precipitation: 0.00 in /  0 mm    
Historical Graphs
 
 
Tabular Data for February 15, 2017
Time Temperature Dew Point Pressure Wind Wind Speed Wind Gust Humidity Rainfall Rate (Hourly)
00:04 36.4 °F /  2.4 °C 32.9 °F /  0.5 °C 29.53in /  999.9hPa SW 3.0mph /  4.8km/h 5.0mph /  8km/h 87% 0.00in /  0mm
00:09 36.3 °F /  2.4 °C 32.8 °F /  0.4 °C 29.53in /  999.9hPa SW 2.0mph /  3.2km/h 4.0mph /  6.4km/h 87% 0.00in /  0mm
00:14 36.3 °F /  2.4 °C 32.8 °F /  0.4 °C 29.53in /  999.9hPa WSW 2.0mph /  3.2km/h 4.0mph /  6.4km/h 87% 0.00in /  0mm
00:19 36.1 °F /  2.3 °C 32.6 °F /  0.3 °C 29.53in /  999.9hPa Calm   2.0mph /  3.2km/h 87% 0.00in /  0mm
00:24 35.9 °F /  2.2 °C 32.4 °F /  0.2 °C 29.53in /  999.9hPa SSW 1.0mph /  1.6km/h 4.0mph /  6.4km/h 87% 0.00in /  0mm
00:29 36.0 °F /  2.2 °C 32.5 °F /  0.3 °C 29.52in /  999.5hPa SW 4.0mph /  6.4km/h 5.0mph /  8km/h 87% 0.00in /  0mm
00:34 36.1 °F /  2.3 °C 32.6 °F /  0.3 °C 29.52in /  999.5hPa SW 3.0mph /  4.8km/h 5.0mph /  8km/h 87% 0.00in /  0mm
00:39 36.2 °F /  2.3 °C 32.4 °F /  0.2 °C 29.51in /  999.2hPa SSW 3.0mph /  4.8km/h 5.0mph /  8km/h 86% 0.00in /  0mm
00:44 36.0 °F /  2.2 °C 32.2 °F /  0.1 °C 29.50in /  998.9hPa SSW 3.0mph /  4.8km/h 5.0mph /  8km/h 86% 0.00in /  0mm
00:49 35.9 °F /  2.2 °C 32.1 °F /  0.1 °C 29.50in /  998.9hPa SSW 3.0mph /  4.8km/h 5.0mph /  8km/h 86% 0.00in /  0mm
00:54 35.7 °F /  2.1 °C 31.9 °F /  -0.1 °C 29.50in /  998.9hPa South 3.0mph /  4.8km/h 5.0mph /  8km/h 86% 0.00in /  0mm
00:59 35.5 °F /  1.9 °C 31.7 °F /  -0.2 °C 29.51in /  999.2hPa SW 3.0mph /  4.8km/h 5.0mph /  8km/h 86% 0.00in /  0mm
01:04 35.6 °F /  2 °C 32.1 °F /  0.1 °C 29.52in /  999.5hPa WSW 5.0mph /  8km/h 8.0mph /  12.9km/h 87% 0.00in /  0mm
01:09 35.6 °F /  2 °C 31.8 °F /  -0.1 °C 29.52in /  999.5hPa SW 3.0mph /  4.8km/h 9.0mph /  14.5km/h 86% 0.00in /  0mm
01:14 35.5 °F /  1.9 °C 31.7 °F /  -0.2 °C 29.52in /  999.5hPa SW 4.0mph /  6.4km/h 7.0mph /  11.3km/h 86% 0.00in /  0mm
01:19 35.4 °F /  1.9 °C 31.6 °F /  -0.2 °C 29.51in /  999.2hPa SSE 2.0mph /  3.2km/h 7.0mph /  11.3km/h 86% 0.00in /  0mm
01:24 35.4 °F /  1.9 °C 31.6 °F /  -0.2 °C 29.51in /  999.2hPa SSW 2.0mph /  3.2km/h 8.0mph /  12.9km/h 86% 0.00in /  0mm
01:29 35.4 °F /  1.9 °C 31.9 °F /  -0.1 °C 29.51in /  999.2hPa SW 5.0mph /  8km/h 9.0mph /  14.5km/h 87% 0.00in /  0mm
01:34 35.5 °F /  1.9 °C 32.0 °F /  0 °C 29.51in /  999.2hPa SW 3.0mph /  4.8km/h 8.0mph /  12.9km/h 87% 0.00in /  0mm
01:39 35.6 °F /  2 °C 32.1 °F /  0.1 °C 29.51in /  999.2hPa SW 4.0mph /  6.4km/h 9.0mph /  14.5km/h 87% 0.00in /  0mm
01:44 35.7 °F /  2.1 °C 32.2 °F /  0.1 °C 29.51in /  999.2hPa SW 4.0mph /  6.4km/h 9.0mph /  14.5km/h 87% 0.00in /  0mm
01:49 35.7 °F /  2.1 °C 32.2 °F /  0.1 °C 29.51in /  999.2hPa SW 5.0mph /  8km/h 6.0mph /  9.7km/h 87% 0.00in /  0mm
01:54 35.7 °F /  2.1 °C 32.2 °F /  0.1 °C 29.51in /  999.2hPa SW 3.0mph /  4.8km/h 7.0mph /  11.3km/h 87% 0.00in /  0mm
01:59 35.8 °F /  2.1 °C 32.3 °F /  0.2 °C 29.51in /  999.2hPa SW 4.0mph /  6.4km/h 7.0mph /  11.3km/h 87% 0.00in /  0mm
02:04 35.8 °F /  2.1 °C 32.3 °F /  0.2 °C 29.51in /  999.2hPa WSW 6.0mph /  9.7km/h 7.0mph /  11.3km/h 87% 0.00in /  0mm
02:09 35.8 °F /  2.1 °C 32.3 °F /  0.2 °C 29.51in /  999.2hPa SW 4.0mph /  6.4km/h 9.0mph /  14.5km/h 87% 0.00in /  0mm
02:14 35.8 °F /  2.1 °C 32.3 °F /  0.2 °C 29.51in /  999.2hPa SSW 7.0mph /  11.3km/h 8.0mph /  12.9km/h 87% 0.00in /  0mm
02:19 35.9 °F /  2.2 °C 32.4 °F /  0.2 °C 29.51in /  999.2hPa SW 3.0mph /  4.8km/h 10.0mph /  16.1km/h 87% 0.00in /  0mm
02:24 35.8 °F /  2.1 °C 32.3 °F /  0.2 °C 29.50in /  998.9hPa SSW 4.0mph /  6.4km/h 9.0mph /  14.5km/h 87% 0.00in /  0mm
02:29 35.8 °F /  2.1 °C 32.3 °F /  0.2 °C 29.51in /  999.2hPa SW 4.0mph /  6.4km/h 9.0mph /  14.5km/h 87% 0.00in /  0mm
02:34 35.8 °F /  2.1 °C 32.3 °F /  0.2 °C 29.50in /  998.9hPa WSW 1.0mph /  1.6km/h 5.0mph /  8km/h 87% 0.00in /  0mm
02:39 35.7 °F /  2.1 °C 32.2 °F /  0.1 °C 29.50in /  998.9hPa WNW 4.0mph /  6.4km/h 6.0mph /  9.7km/h 87% 0.00in /  0mm
02:44 35.6 °F /  2 °C 32.1 °F /  0.1 °C 29.50in /  998.9hPa WSW 3.0mph /  4.8km/h 6.0mph /  9.7km/h 87% 0.01in /  0.25mm
02:49 35.5 °F /  1.9 °C 32.3 °F /  0.2 °C 29.50in /  998.9hPa West 2.0mph /  3.2km/h 4.0mph /  6.4km/h 88% 0.01in /  0.25mm
02:54 35.4 °F /  1.9 °C 32.2 °F /  0.1 °C 29.50in /  998.9hPa West 3.0mph /  4.8km/h 7.0mph /  11.3km/h 88% 0.01in /  0.25mm
02:59 35.3 °F /  1.8 °C 32.1 °F /  0.1 °C 29.50in /  998.9hPa SW 5.0mph /  8km/h 9.0mph /  14.5km/h 88% 0.01in /  0.25mm
03:04 35.3 °F /  1.8 °C 32.1 °F /  0.1 °C 29.50in /  998.9hPa SSW 2.0mph /  3.2km/h 7.0mph /  11.3km/h 88% 0.01in /  0.25mm
03:09 35.3 °F /  1.8 °C 32.1 °F /  0.1 °C 29.50in /  998.9hPa SW 2.0mph /  3.2km/h 5.0mph /  8km/h 88% 0.01in /  0.25mm
03:14 35.2 °F /  1.8 °C 32.0 °F /  0 °C 29.50in /  998.9hPa SW 2.0mph /  3.2km/h 6.0mph /  9.7km/h 88% 0.01in /  0.25mm
03:19 35.2 °F /  1.8 °C 32.0 °F /  0 °C 29.50in /  998.9hPa WSW 2.0mph /  3.2km/h 6.0mph /  9.7km/h 88% 0.01in /  0.25mm
03:24 35.1 °F /  1.7 °C 31.9 °F /  -0.1 °C 29.49in /  998.5hPa WSW 2.0mph /  3.2km/h 4.0mph /  6.4km/h 88% 0.01in /  0.25mm
03:29 35.1 °F /  1.7 °C 31.9 °F /  -0.1 °C 29.49in /  998.5hPa SW 2.0mph /  3.2km/h 5.0mph /  8km/h 88% 0.01in /  0.25mm
03:34 35.1 °F /  1.7 °C 31.9 °F /  -0.1 °C 29.49in /  998.5hPa SW 2.0mph /  3.2km/h 6.0mph /  9.7km/h 88% 0.01in /  0.25mm
03:39 35.0 °F /  1.7 °C 31.8 °F /  -0.1 °C 29.49in /  998.5hPa WSW 3.0mph /  4.8km/h 5.0mph /  8km/h 88% 0.01in /  0.25mm
03:44 35.0 °F /  1.7 °C 31.8 °F /  -0.1 °C 29.49in /  998.5hPa SW 2.0mph /  3.2km/h 6.0mph /  9.7km/h 88% 0.00in /  0mm
03:49 34.9 °F /  1.6 °C 31.7 °F /  -0.2 °C 29.48in /  998.2hPa SW 2.0mph /  3.2km/h 6.0mph /  9.7km/h 88% 0.00in /  0mm
03:54 34.8 °F /  1.6 °C 31.9 °F /  -0.1 °C 29.48in /  998.2hPa SW 2.0mph /  3.2km/h 6.0mph /  9.7km/h 89% 0.00in /  0mm
03:59 34.8 °F /  1.6 °C 31.6 °F /  -0.2 °C 29.48in /  998.2hPa SW 2.0mph /  3.2km/h 6.0mph /  9.7km/h 88% 0.00in /  0mm
04:04 34.8 °F /  1.6 °C 31.9 °F /  -0.1 °C 29.48in /  998.2hPa SSW 1.0mph /  1.6km/h 3.0mph /  4.8km/h 89% 0.00in /  0mm
04:09 34.8 °F /  1.6 °C 31.9 °F /  -0.1 °C 29.48in /  998.2hPa SSW 2.0mph /  3.2km/h 4.0mph /  6.4km/h 89% 0.00in /  0mm
04:14 34.7 °F /  1.5 °C 31.8 °F /  -0.1 °C 29.48in /  998.2hPa SW 1.0mph /  1.6km/h 3.0mph /  4.8km/h 89% 0.00in /  0mm
04:19 34.6 °F /  1.4 °C 31.7 °F /  -0.2 °C 29.48in /  998.2hPa SW 1.0mph /  1.6km/h 4.0mph /  6.4km/h 89% 0.00in /  0mm
04:24 34.6 °F /  1.4 °C 31.7 °F /  -0.2 °C 29.48in /  998.2hPa SW 3.0mph /  4.8km/h 6.0mph /  9.7km/h 89% 0.00in /  0mm
04:29 34.4 °F /  1.3 °C 31.5 °F /  -0.3 °C 29.48in /  998.2hPa SW 3.0mph /  4.8km/h 6.0mph /  9.7km/h 89% 0.00in /  0mm
04:34 34.3 °F /  1.3 °C 31.4 °F /  -0.3 °C 29.48in /  998.2hPa SW 3.0mph /  4.8km/h 6.0mph /  9.7km/h 89% 0.00in /  0mm
04:39 34.2 °F /  1.2 °C 31.3 °F /  -0.4 °C 29.48in /  998.2hPa SW 4.0mph /  6.4km/h 10.0mph /  16.1km/h 89% 0.00in /  0mm
04:44 34.1 °F /  1.2 °C 31.2 °F /  -0.4 °C 29.48in /  998.2hPa SW 4.0mph /  6.4km/h 8.0mph /  12.9km/h 89% 0.00in /  0mm
04:49 34.1 °F /  1.2 °C 31.2 °F /  -0.4 °C 29.48in /  998.2hPa SW 4.0mph /  6.4km/h 5.0mph /  8km/h 89% 0.00in /  0mm
04:54 33.9 °F /  1.1 °C 31.0 °F /  -0.6 °C 29.48in /  998.2hPa SW 3.0mph /  4.8km/h 7.0mph /  11.3km/h 89% 0.00in /  0mm
04:59 33.8 °F /  1 °C 31.2 °F /  -0.4 °C 29.48in /  998.2hPa SW 4.0mph /  6.4km/h 7.0mph /  11.3km/h 90% 0.00in /  0mm
05:04 33.7 °F /  0.9 °C 31.1 °F /  -0.5 °C 29.48in /  998.2hPa WSW 5.0mph /  8km/h 9.0mph /  14.5km/h 90% 0.01in /  0.25mm
05:09 33.6 °F /  0.9 °C 31.0 °F /  -0.6 °C 29.48in /  998.2hPa SW 5.0mph /  8km/h 9.0mph /  14.5km/h 90% 0.01in /  0.25mm
05:14 33.4 °F /  0.8 °C 30.8 °F /  -0.7 °C 29.48in /  998.2hPa SW 3.0mph /  4.8km/h 7.0mph /  11.3km/h 90% 0.01in /  0.25mm
05:19 33.3 °F /  0.7 °C 30.7 °F /  -0.7 °C 29.48in /  998.2hPa SW 1.0mph /  1.6km/h 7.0mph /  11.3km/h 90% 0.01in /  0.25mm
05:24 33.2 °F /  0.7 °C 30.6 °F /  -0.8 °C 29.48in /  998.2hPa SW 4.0mph /  6.4km/h 9.0mph /  14.5km/h 90% 0.01in /  0.25mm
05:29 33.1 °F /  0.6 °C 30.8 °F /  -0.7 °C 29.48in /  998.2hPa SSW 4.0mph /  6.4km/h 9.0mph /  14.5km/h 91% 0.01in /  0.25mm
05:34 33.0 °F /  0.6 °C 30.7 °F /  -0.7 °C 29.48in /  998.2hPa SSW 4.0mph /  6.4km/h 7.0mph /  11.3km/h 91% 0.01in /  0.25mm
05:39 33.0 °F /  0.6 °C 30.7 °F /  -0.7 °C 29.48in /  998.2hPa South 3.0mph /  4.8km/h 8.0mph /  12.9km/h 91% 0.01in /  0.25mm
05:44 32.9 °F /  0.5 °C 30.6 °F /  -0.8 °C 29.48in /  998.2hPa SW 3.0mph /  4.8km/h 7.0mph /  11.3km/h 91% 0.01in /  0.25mm
05:49 32.8 °F /  0.4 °C 30.7 °F /  -0.7 °C 29.48in /  998.2hPa SW 4.0mph /  6.4km/h 6.0mph /  9.7km/h 92% 0.01in /  0.25mm
05:54 32.8 °F /  0.4 °C 30.7 °F /  -0.7 °C 29.48in /  998.2hPa SW 4.0mph /  6.4km/h 7.0mph /  11.3km/h 92% 0.01in /  0.25mm
05:59 32.8 °F /  0.4 °C 30.7 °F /  -0.7 °C 29.48in /  998.2hPa SW 4.0mph /  6.4km/h 7.0mph /  11.3km/h 92% 0.01in /  0.25mm
06:04 32.9 °F /  0.5 °C 30.8 °F /  -0.7 °C 29.48in /  998.2hPa SW 3.0mph /  4.8km/h 7.0mph /  11.3km/h 92% 0.00in /  0mm
06:09 32.8 °F /  0.4 °C 30.7 °F /  -0.7 °C 29.48in /  998.2hPa WSW 4.0mph /  6.4km/h 8.0mph /  12.9km/h 92% 0.00in /  0mm
06:14 32.8 °F /  0.4 °C 30.7 °F /  -0.7 °C 29.48in /  998.2hPa SW 4.0mph /  6.4km/h 8.0mph /  12.9km/h 92% 0.00in /  0mm
06:19 32.9 °F /  0.5 °C 30.8 °F /  -0.7 °C 29.48in /  998.2hPa WSW 4.0mph /  6.4km/h 8.0mph /  12.9km/h 92% 0.00in /  0mm
06:24 32.9 °F /  0.5 °C 30.8 °F /  -0.7 °C 29.48in /  998.2hPa Calm   5.0mph /  8km/h 92% 0.00in /  0mm
06:34 32.8 °F /  0.4 °C 30.7 °F /  -0.7 °C 29.48in /  998.2hPa West 2.0mph /  3.2km/h 5.0mph /  8km/h 92% 0.00in /  0mm
06:39 32.8 °F /  0.4 °C 30.7 °F /  -0.7 °C 29.48in /  998.2hPa West 3.0mph /  4.8km/h 5.0mph /  8km/h 92% 0.00in /  0mm
06:44 32.8 °F /  0.4 °C 30.7 °F /  -0.7 °C 29.48in /  998.2hPa West 3.0mph /  4.8km/h 5.0mph /  8km/h 92% 0.00in /  0mm
06:49 32.8 °F /  0.4 °C 30.7 °F /  -0.7 °C 29.48in /  998.2hPa West 4.0mph /  6.4km/h 6.0mph /  9.7km/h 92% 0.00in /  0mm
06:54 32.8 °F /  0.4 °C 30.7 °F /  -0.7 °C 29.48in /  998.2hPa West 5.0mph /  8km/h 6.0mph /  9.7km/h 92% 0.00in /  0mm
06:59 32.9 °F /  0.5 °C 30.6 °F /  -0.8 °C 29.48in /  998.2hPa NW 2.0mph /  3.2km/h 7.0mph /  11.3km/h 91% 0.00in /  0mm
07:04 32.8 °F /  0.4 °C 30.5 °F /  -0.8 °C 29.48in /  998.2hPa WNW 3.0mph /  4.8km/h 7.0mph /  11.3km/h 91% 0.00in /  0mm
07:09 32.8 °F /  0.4 °C 30.5 °F /  -0.8 °C 29.48in /  998.2hPa NW 3.0mph /  4.8km/h 7.0mph /  11.3km/h 91% 0.00in /  0mm
07:14 32.8 °F /  0.4 °C 30.2 °F /  -1 °C 29.48in /  998.2hPa NW 3.0mph /  4.8km/h 7.0mph /  11.3km/h 90% 0.00in /  0mm
07:19 32.8 °F /  0.4 °C 30.2 °F /  -1 °C 29.48in /  998.2hPa NW 3.0mph /  4.8km/h 6.0mph /  9.7km/h 90% 0.00in /  0mm
07:24 32.8 °F /  0.4 °C 29.9 °F /  -1.2 °C 29.48in /  998.2hPa NW 3.0mph /  4.8km/h 9.0mph /  14.5km/h 89% 0.00in /  0mm
07:29 32.7 °F /  0.4 °C 29.5 °F /  -1.4 °C 29.48in /  998.2hPa NNW 2.0mph /  3.2km/h 8.0mph /  12.9km/h 88% 0.00in /  0mm
07:34 32.8 °F /  0.4 °C 29.6 °F /  -1.3 °C 29.48in /  998.2hPa NW 4.0mph /  6.4km/h 8.0mph /  12.9km/h 88% 0.00in /  0mm
07:39 32.8 °F /  0.4 °C 29.4 °F /  -1.4 °C 29.48in /  998.2hPa WNW 4.0mph /  6.4km/h 10.0mph /  16.1km/h 87% 0.00in /  0mm
07:44 32.7 °F /  0.4 °C 29.3 °F /  -1.5 °C 29.48in /  998.2hPa NW 6.0mph /  9.7km/h 9.0mph /  14.5km/h 87% 0.00in /  0mm
07:49 32.5 °F /  0.3 °C 29.1 °F /  -1.6 °C 29.49in /  998.5hPa NNW 4.0mph /  6.4km/h 8.0mph /  12.9km/h 87% 0.00in /  0mm
07:54 32.3 °F /  0.2 °C 29.1 °F /  -1.6 °C 29.49in /  998.5hPa NNW 4.0mph /  6.4km/h 8.0mph /  12.9km/h 88% 0.00in /  0mm
07:59 32.0 °F /  0 °C 28.8 °F /  -1.8 °C 29.49in /  998.5hPa North 6.0mph /  9.7km/h 10.0mph /  16.1km/h 88% 0.00in /  0mm
08:04 31.7 °F /  -0.2 °C 28.8 °F /  -1.8 °C 29.49in /  998.5hPa NNW 2.0mph /  3.2km/h 11.0mph /  17.7km/h 89% 0.00in /  0mm
08:09 31.6 °F /  -0.2 °C 28.7 °F /  -1.8 °C 29.49in /  998.5hPa NW 5.0mph /  8km/h 11.0mph /  17.7km/h 89% 0.00in /  0mm
08:14 31.6 °F /  -0.2 °C 29.0 °F /  -1.7 °C 29.50in /  998.9hPa NW 4.0mph /  6.4km/h 9.0mph /  14.5km/h 90% 0.00in /  0mm
08:19 31.6 °F /  -0.2 °C 29.0 °F /  -1.7 °C 29.50in /  998.9hPa NW 4.0mph /  6.4km/h 11.0mph /  17.7km/h 90% 0.00in /  0mm
08:24 31.6 °F /  -0.2 °C 29.0 °F /  -1.7 °C 29.50in /  998.9hPa WNW 4.0mph /  6.4km/h 11.0mph /  17.7km/h 90% 0.00in /  0mm
08:29 31.6 °F /  -0.2 °C 29.0 °F /  -1.7 °C 29.50in /  998.9hPa NNW 6.0mph /  9.7km/h 8.0mph /  12.9km/h 90% 0.00in /  0mm
08:34 31.4 °F /  -0.3 °C 28.8 °F /  -1.8 °C 29.51in /  999.2hPa WNW 4.0mph /  6.4km/h 10.0mph /  16.1km/h 90% 0.00in /  0mm
08:39 31.4 °F /  -0.3 °C 28.8 °F /  -1.8 °C 29.51in /  999.2hPa NW 4.0mph /  6.4km/h 10.0mph /  16.1km/h 90% 0.00in /  0mm
08:44 31.3 °F /  -0.4 °C 28.7 °F /  -1.8 °C 29.51in /  999.2hPa WNW 6.0mph /  9.7km/h 10.0mph /  16.1km/h 90% 0.00in /  0mm
08:49 31.1 °F /  -0.5 °C 28.2 °F /  -2.1 °C 29.51in /  999.2hPa WNW 5.0mph /  8km/h 13.0mph /  20.9km/h 89% 0.00in /  0mm
08:54 30.9 °F /  -0.6 °C 28.0 °F /  -2.2 °C 29.51in /  999.2hPa NW 5.0mph /  8km/h 10.0mph /  16.1km/h 89% 0.00in /  0mm
08:59 30.8 °F /  -0.7 °C 27.9 °F /  -2.3 °C 29.51in /  999.2hPa West 4.0mph /  6.4km/h 9.0mph /  14.5km/h 89% 0.00in /  0mm
09:04 30.8 °F /  -0.7 °C 27.9 °F /  -2.3 °C 29.51in /  999.2hPa WNW 5.0mph /  8km/h 9.0mph /  14.5km/h 89% 0.00in /  0mm
09:09 30.7 °F /  -0.7 °C 27.8 °F /  -2.3 °C 29.51in /  999.2hPa NNW 6.0mph /  9.7km/h 11.0mph /  17.7km/h 89% 0.00in /  0mm
09:14 30.8 °F /  -0.7 °C 27.7 °F /  -2.4 °C 29.51in /  999.2hPa NW 5.0mph /  8km/h 12.0mph /  19.3km/h 88% 0.00in /  0mm
09:19 30.8 °F /  -0.7 °C 27.7 °F /  -2.4 °C 29.51in /  999.2hPa NW 4.0mph /  6.4km/h 12.0mph /  19.3km/h 88% 0.00in /  0mm
09:24 31.0 °F /  -0.6 °C 27.6 °F /  -2.4 °C 29.51in /  999.2hPa NW 5.0mph /  8km/h 11.0mph /  17.7km/h 87% 0.00in /  0mm
09:29 31.3 °F /  -0.4 °C 27.6 °F /  -2.4 °C 29.51in /  999.2hPa WNW 4.0mph /  6.4km/h 11.0mph /  17.7km/h 86% 0.00in /  0mm
09:34 31.5 °F /  -0.3 °C 27.5 °F /  -2.5 °C 29.52in /  999.5hPa NW 4.0mph /  6.4km/h 8.0mph /  12.9km/h 85% 0.00in /  0mm
09:39 31.6 °F /  -0.2 °C 27.3 °F /  -2.6 °C 29.52in /  999.5hPa WNW 4.0mph /  6.4km/h 9.0mph /  14.5km/h 84% 0.00in /  0mm
09:44 31.6 °F /  -0.2 °C 27.3 °F /  -2.6 °C 29.52in /  999.5hPa WNW 5.0mph /  8km/h 9.0mph /  14.5km/h 84% 0.00in /  0mm
09:49 31.7 °F /  -0.2 °C 27.4 °F /  -2.6 °C 29.52in /  999.5hPa WNW 5.0mph /  8km/h 9.0mph /  14.5km/h 84% 0.00in /  0mm
09:54 31.8 °F /  -0.1 °C 27.5 °F /  -2.5 °C 29.52in /  999.5hPa West 3.0mph /  4.8km/h 7.0mph /  11.3km/h 84% 0.00in /  0mm
09:59 31.9 °F /  -0.1 °C 27.9 °F /  -2.3 °C 29.52in /  999.5hPa NW 3.0mph /  4.8km/h 8.0mph /  12.9km/h 85% 0.01in /  0.25mm
10:04 32.0 °F /  0 °C 28.0 °F /  -2.2 °C 29.52in /  999.5hPa West 5.0mph /  8km/h 10.0mph /  16.1km/h 85% 0.01in /  0.25mm
10:09 32.1 °F /  0.1 °C 28.4 °F /  -2 °C 29.52in /  999.5hPa West 4.0mph /  6.4km/h 10.0mph /  16.1km/h 86% 0.01in /  0.25mm
10:14 32.2 °F /  0.1 °C 28.2 °F /  -2.1 °C 29.52in /  999.5hPa WSW 5.0mph /  8km/h 10.0mph /  16.1km/h 85% 0.01in /  0.25mm
10:19 32.4 °F /  0.2 °C 28.7 °F /  -1.8 °C 29.52in /  999.5hPa SW 5.0mph /  8km/h 7.0mph /  11.3km/h 86% 0.01in /  0.25mm
10:24 32.3 °F /  0.2 °C 28.6 °F /  -1.9 °C 29.52in /  999.5hPa WSW 5.0mph /  8km/h 8.0mph /  12.9km/h 86% 0.01in /  0.25mm
10:29 32.4 °F /  0.2 °C 29.0 °F /  -1.7 °C 29.52in /  999.5hPa WSW 5.0mph /  8km/h 9.0mph /  14.5km/h 87% 0.01in /  0.25mm
10:34 32.5 °F /  0.3 °C 29.1 °F /  -1.6 °C 29.52in /  999.5hPa WSW 5.0mph /  8km/h 10.0mph /  16.1km/h 87% 0.01in /  0.25mm
10:39 32.8 °F /  0.4 °C 29.4 °F /  -1.4 °C 29.52in /  999.5hPa WSW 5.0mph /  8km/h 11.0mph /  17.7km/h 87% 0.01in /  0.25mm
10:44 33.0 °F /  0.6 °C 29.3 °F /  -1.5 °C 29.52in /  999.5hPa WSW 3.0mph /  4.8km/h 13.0mph /  20.9km/h 86% 0.01in /  0.25mm
10:49 33.1 °F /  0.6 °C 28.8 °F /  -1.8 °C 29.52in /  999.5hPa NW 3.0mph /  4.8km/h 14.0mph /  22.5km/h 84% 0.01in /  0.25mm
10:54 33.2 °F /  0.7 °C 28.6 °F /  -1.9 °C 29.52in /  999.5hPa West 5.0mph /  8km/h 10.0mph /  16.1km/h 83% 0.01in /  0.25mm
10:59 33.4 °F /  0.8 °C 28.8 °F /  -1.8 °C 29.52in /  999.5hPa West 6.0mph /  9.7km/h 15.0mph /  24.1km/h 83% 0.00in /  0mm
11:04 33.2 °F /  0.7 °C 28.0 °F /  -2.2 °C 29.52in /  999.5hPa WSW 7.0mph /  11.3km/h 15.0mph /  24.1km/h 81% 0.00in /  0mm
11:09 33.4 °F /  0.8 °C 28.2 °F /  -2.1 °C 29.53in /  999.9hPa WNW 5.0mph /  8km/h 10.0mph /  16.1km/h 81% 0.00in /  0mm
11:14 33.3 °F /  0.7 °C 27.5 °F /  -2.5 °C 29.52in /  999.5hPa West 4.0mph /  6.4km/h 10.0mph /  16.1km/h 79% 0.00in /  0mm
11:19 33.4 °F /  0.8 °C 27.6 °F /  -2.4 °C 29.53in /  999.9hPa West 4.0mph /  6.4km/h 13.0mph /  20.9km/h 79% 0.00in /  0mm
11:24 33.8 °F /  1 °C 28.0 °F /  -2.2 °C 29.53in /  999.9hPa West 10.0mph /  16.1km/h 12.0mph /  19.3km/h 79% 0.00in /  0mm
11:29 34.6 °F /  1.4 °C 28.8 °F /  -1.8 °C 29.53in /  999.9hPa West 5.0mph /  8km/h 12.0mph /  19.3km/h 79% 0.00in /  0mm
11:34 34.5 °F /  1.4 °C 28.0 °F /  -2.2 °C 29.53in /  999.9hPa WSW 7.0mph /  11.3km/h 14.0mph /  22.5km/h 77% 0.00in /  0mm
11:39 34.6 °F /  1.4 °C 28.1 °F /  -2.2 °C 29.53in /  999.9hPa West 7.0mph /  11.3km/h 14.0mph /  22.5km/h 77% 0.00in /  0mm
11:44 33.7 °F /  0.9 °C 26.6 °F /  -3 °C 29.53in /  999.9hPa WNW 3.0mph /  4.8km/h 11.0mph /  17.7km/h 75% 0.00in /  0mm
11:49 34.0 °F /  1.1 °C 27.2 °F /  -2.7 °C 29.52in /  999.5hPa West 6.0mph /  9.7km/h 11.0mph /  17.7km/h 76% 0.00in /  0mm
11:54 34.5 °F /  1.4 °C 27.4 °F /  -2.6 °C 29.52in /  999.5hPa West 6.0mph /  9.7km/h 14.0mph /  22.5km/h 75% 0.00in /  0mm
11:59 34.4 °F /  1.3 °C 27.9 °F /  -2.3 °C 29.53in /  999.9hPa SSW 6.0mph /  9.7km/h 12.0mph /  19.3km/h 77% 0.00in /  0mm
12:04 35.4 °F /  1.9 °C 29.2 °F /  -1.6 °C 29.52in /  999.5hPa WSW 8.0mph /  12.9km/h 15.0mph /  24.1km/h 78% 0.00in /  0mm
12:09 36.2 °F /  2.3 °C 29.4 °F /  -1.4 °C 29.52in /  999.5hPa SW 8.0mph /  12.9km/h 15.0mph /  24.1km/h 76% 0.00in /  0mm
12:14 36.3 °F /  2.4 °C 29.1 °F /  -1.6 °C 29.52in /  999.5hPa WSW 8.0mph /  12.9km/h 16.0mph /  25.7km/h 75% 0.00in /  0mm
12:19 35.9 °F /  2.2 °C 29.1 °F /  -1.6 °C 29.52in /  999.5hPa WSW 8.0mph /  12.9km/h 15.0mph /  24.1km/h 76% 0.00in /  0mm
12:24 36.0 °F /  2.2 °C 29.5 °F /  -1.4 °C 29.52in /  999.5hPa SW 13.0mph /  20.9km/h 14.0mph /  22.5km/h 77% 0.00in /  0mm
12:29 35.2 °F /  1.8 °C 28.7 °F /  -1.8 °C 29.51in /  999.2hPa WSW 6.0mph /  9.7km/h 17.0mph /  27.4km/h 77% 0.00in /  0mm
12:34 35.1 °F /  1.7 °C 28.9 °F /  -1.7 °C 29.51in /  999.2hPa WSW 8.0mph /  12.9km/h 17.0mph /  27.4km/h 78% 0.00in /  0mm
12:39 35.4 °F /  1.9 °C 28.9 °F /  -1.7 °C 29.51in /  999.2hPa WSW 8.0mph /  12.9km/h 13.0mph /  20.9km/h 77% 0.00in /  0mm
12:44 34.9 °F /  1.6 °C 28.4 °F /  -2 °C 29.51in /  999.2hPa SW 7.0mph /  11.3km/h 16.0mph /  25.7km/h 77% 0.00in /  0mm
12:49 34.6 °F /  1.4 °C 28.4 °F /  -2 °C 29.51in /  999.2hPa SW 8.0mph /  12.9km/h 16.0mph /  25.7km/h 78% 0.00in /  0mm
12:54 33.9 °F /  1.1 °C 28.1 °F /  -2.2 °C 29.51in /  999.2hPa SW 8.0mph /  12.9km/h 14.0mph /  22.5km/h 79% 0.00in /  0mm
12:59 33.4 °F /  0.8 °C 27.9 °F /  -2.3 °C 29.51in /  999.2hPa WSW 8.0mph /  12.9km/h 13.0mph /  20.9km/h 80% 0.00in /  0mm
13:04 33.0 °F /  0.6 °C 28.1 °F /  -2.2 °C 29.51in /  999.2hPa WSW 11.0mph /  17.7km/h 11.0mph /  17.7km/h 82% 0.00in /  0mm
13:09 32.7 °F /  0.4 °C 27.8 °F /  -2.3 °C 29.51in /  999.2hPa WSW 7.0mph /  11.3km/h 14.0mph /  22.5km/h 82% 0.00in /  0mm
13:14 32.4 °F /  0.2 °C 27.8 °F /  -2.3 °C 29.51in /  999.2hPa WSW 8.0mph /  12.9km/h 16.0mph /  25.7km/h 83% 0.00in /  0mm
13:19 32.2 °F /  0.1 °C 27.9 °F /  -2.3 °C 29.51in /  999.2hPa WSW 8.0mph /  12.9km/h 16.0mph /  25.7km/h 84% 0.00in /  0mm
13:24 32.2 °F /  0.1 °C 28.2 °F /  -2.1 °C 29.51in /  999.2hPa WSW 5.0mph /  8km/h 12.0mph /  19.3km/h 85% 0.00in /  0mm
13:29 32.2 °F /  0.1 °C 28.2 °F /  -2.1 °C 29.51in /  999.2hPa WSW 7.0mph /  11.3km/h 14.0mph /  22.5km/h 85% 0.00in /  0mm
13:34 32.4 °F /  0.2 °C 28.4 °F /  -2 °C 29.51in /  999.2hPa West 2.0mph /  3.2km/h 12.0mph /  19.3km/h 85% 0.00in /  0mm
13:39 32.3 °F /  0.2 °C 28.6 °F /  -1.9 °C 29.51in /  999.2hPa WNW 5.0mph /  8km/h 8.0mph /  12.9km/h 86% 0.00in /  0mm
13:44 32.1 °F /  0.1 °C 28.7 °F /  -1.8 °C 29.51in /  999.2hPa WSW 5.0mph /  8km/h 15.0mph /  24.1km/h 87% 0.00in /  0mm
13:49 31.9 °F /  -0.1 °C 28.5 °F /  -1.9 °C 29.51in /  999.2hPa West 6.0mph /  9.7km/h 15.0mph /  24.1km/h 87% 0.00in /  0mm
13:54 31.9 °F /  -0.1 °C 28.5 °F /  -1.9 °C 29.51in /  999.2hPa WSW 6.0mph /  9.7km/h 15.0mph /  24.1km/h 87% 0.00in /  0mm
13:59 32.0 °F /  0 °C 28.8 °F /  -1.8 °C 29.51in /  999.2hPa WSW 6.0mph /  9.7km/h 15.0mph /  24.1km/h 88% 0.00in /  0mm
14:04 32.2 °F /  0.1 °C 29.0 °F /  -1.7 °C 29.51in /  999.2hPa WSW 5.0mph /  8km/h 10.0mph /  16.1km/h 88% 0.01in /  0.25mm
14:09 32.2 °F /  0.1 °C 29.0 °F /  -1.7 °C 29.51in /  999.2hPa WSW 6.0mph /  9.7km/h 12.0mph /  19.3km/h 88% 0.01in /  0.25mm
14:14 32.4 °F /  0.2 °C 29.2 °F /  -1.6 °C 29.51in /  999.2hPa WSW 5.0mph /  8km/h 12.0mph /  19.3km/h 88% 0.01in /  0.25mm
14:19 32.4 °F /  0.2 °C 29.2 °F /  -1.6 °C 29.51in /  999.2hPa SSW 3.0mph /  4.8km/h 10.0mph /  16.1km/h 88% 0.01in /  0.25mm
14:24 32.4 °F /  0.2 °C 29.2 °F /  -1.6 °C 29.51in /  999.2hPa West 5.0mph /  8km/h 13.0mph /  20.9km/h 88% 0.01in /  0.25mm
14:29 32.2 °F /  0.1 °C 29.0 °F /  -1.7 °C 29.52in /  999.5hPa West 3.0mph /  4.8km/h 13.0mph /  20.9km/h 88% 0.01in /  0.25mm
14:34 32.2 °F /  0.1 °C 29.0 °F /  -1.7 °C 29.53in /  999.9hPa NNW 5.0mph /  8km/h 12.0mph /  19.3km/h 88% 0.01in /  0.25mm
14:39 31.3 °F /  -0.4 °C 28.2 °F /  -2.1 °C 29.53in /  999.9hPa NW 5.0mph /  8km/h 12.0mph /  19.3km/h 88% 0.01in /  0.25mm
14:44 30.9 °F /  -0.6 °C 28.0 °F /  -2.2 °C 29.53in /  999.9hPa WNW 4.0mph /  6.4km/h 9.0mph /  14.5km/h 89% 0.01in /  0.25mm
14:49 31.1 °F /  -0.5 °C 28.5 °F /  -1.9 °C 29.53in /  999.9hPa WNW 5.0mph /  8km/h 7.0mph /  11.3km/h 90% 0.01in /  0.25mm
14:54 31.4 °F /  -0.3 °C 28.8 °F /  -1.8 °C 29.53in /  999.9hPa NW 1.0mph /  1.6km/h 6.0mph /  9.7km/h 90% 0.01in /  0.25mm
14:59 31.4 °F /  -0.3 °C 28.5 °F /  -1.9 °C 29.53in /  999.9hPa NW 3.0mph /  4.8km/h 6.0mph /  9.7km/h 89% 0.01in /  0.25mm
15:04 31.6 °F /  -0.2 °C 28.7 °F /  -1.8 °C 29.53in /  999.9hPa WNW 3.0mph /  4.8km/h 8.0mph /  12.9km/h 89% 0.00in /  0mm
15:09 31.7 °F /  -0.2 °C 28.8 °F /  -1.8 °C 29.53in /  999.9hPa WNW 3.0mph /  4.8km/h 8.0mph /  12.9km/h 89% 0.00in /  0mm
15:14 31.6 °F /  -0.2 °C 28.7 °F /  -1.8 °C 29.54in /  1000.2hPa NW 3.0mph /  4.8km/h 6.0mph /  9.7km/h 89% 0.00in /  0mm
15:19 31.6 °F /  -0.2 °C 28.7 °F /  -1.8 °C 29.54in /  1000.2hPa WNW 4.0mph /  6.4km/h 9.0mph /  14.5km/h 89% 0.00in /  0mm
15:24 31.5 °F /  -0.3 °C 28.6 °F /  -1.9 °C 29.54in /  1000.2hPa NW 3.0mph /  4.8km/h 12.0mph /  19.3km/h 89% 0.00in /  0mm
15:29 31.4 °F /  -0.3 °C 28.8 °F /  -1.8 °C 29.54in /  1000.2hPa WNW 5.0mph /  8km/h 12.0mph /  19.3km/h 90% 0.00in /  0mm
15:34 31.2 °F /  -0.4 °C 28.6 °F /  -1.9 °C 29.54in /  1000.2hPa NW 3.0mph /  4.8km/h 14.0mph /  22.5km/h 90% 0.00in /  0mm
15:39 31.2 °F /  -0.4 °C 28.6 °F /  -1.9 °C 29.55in /  1000.6hPa WNW 4.0mph /  6.4km/h 10.0mph /  16.1km/h 90% 0.00in /  0mm
15:44 31.1 °F /  -0.5 °C 28.5 °F /  -1.9 °C 29.55in /  1000.6hPa NW 3.0mph /  4.8km/h 10.0mph /  16.1km/h 90% 0.00in /  0mm
15:49 30.8 °F /  -0.7 °C 28.2 °F /  -2.1 °C 29.55in /  1000.6hPa NNW 7.0mph /  11.3km/h 14.0mph /  22.5km/h 90% 0.00in /  0mm
15:54 30.3 °F /  -0.9 °C 27.2 °F /  -2.7 °C 29.55in /  1000.6hPa WNW 4.0mph /  6.4km/h 19.0mph /  30.6km/h 88% 0.00in /  0mm
15:59 30.1 °F /  -1.1 °C 26.7 °F /  -2.9 °C 29.56in /  1000.9hPa NW 8.0mph /  12.9km/h 19.0mph /  30.6km/h 87% 0.00in /  0mm
16:04 30.2 °F /  -1 °C 26.8 °F /  -2.9 °C 29.56in /  1000.9hPa NW 6.0mph /  9.7km/h 15.0mph /  24.1km/h 87% 0.00in /  0mm
16:09 30.1 °F /  -1.1 °C 26.7 °F /  -2.9 °C 29.56in /  1000.9hPa WNW 12.0mph /  19.3km/h 14.0mph /  22.5km/h 87% 0.00in /  0mm
16:14 29.9 °F /  -1.2 °C 26.5 °F /  -3.1 °C 29.56in /  1000.9hPa WNW 7.0mph /  11.3km/h 16.0mph /  25.7km/h 87% 0.00in /  0mm
16:19 29.8 °F /  -1.2 °C 26.1 °F /  -3.3 °C 29.56in /  1000.9hPa WNW 9.0mph /  14.5km/h 16.0mph /  25.7km/h 86% 0.00in /  0mm
16:24 29.9 °F /  -1.2 °C 26.2 °F /  -3.2 °C 29.57in /  1001.2hPa WNW 8.0mph /  12.9km/h 13.0mph /  20.9km/h 86% 0.00in /  0mm
16:29 29.9 °F /  -1.2 °C 25.9 °F /  -3.4 °C 29.57in /  1001.2hPa West 10.0mph /  16.1km/h 12.0mph /  19.3km/h 85% 0.00in /  0mm
16:34 29.9 °F /  -1.2 °C 25.9 °F /  -3.4 °C 29.57in /  1001.2hPa WNW 6.0mph /  9.7km/h 16.0mph /  25.7km/h 85% 0.00in /  0mm
16:39 29.5 °F /  -1.4 °C 25.0 °F /  -3.9 °C 29.57in /  1001.2hPa West 11.0mph /  17.7km/h 18.0mph /  29km/h 83% 0.00in /  0mm
16:44 29.5 °F /  -1.4 °C 24.7 °F /  -4.1 °C 29.57in /  1001.2hPa West 4.0mph /  6.4km/h 19.0mph /  30.6km/h 82% 0.00in /  0mm
16:49 29.6 °F /  -1.3 °C 24.5 °F /  -4.2 °C 29.58in /  1001.6hPa NW 6.0mph /  9.7km/h 12.0mph /  19.3km/h 81% 0.00in /  0mm
16:54 29.6 °F /  -1.3 °C 23.9 °F /  -4.5 °C 29.58in /  1001.6hPa WNW 7.0mph /  11.3km/h 15.0mph /  24.1km/h 79% 0.00in /  0mm
16:59 29.6 °F /  -1.3 °C 23.6 °F /  -4.7 °C 29.58in /  1001.6hPa NW 5.0mph /  8km/h 18.0mph /  29km/h 78% 0.00in /  0mm
17:04 29.3 °F /  -1.5 °C 23.3 °F /  -4.8 °C 29.58in /  1001.6hPa WNW 8.0mph /  12.9km/h 18.0mph /  29km/h 78% 0.00in /  0mm
17:09 29.3 °F /  -1.5 °C 23.3 °F /  -4.8 °C 29.58in /  1001.6hPa WNW 7.0mph /  11.3km/h 17.0mph /  27.4km/h 78% 0.00in /  0mm
17:14 29.3 °F /  -1.5 °C 23.0 °F /  -5 °C 29.59in /  1001.9hPa North 6.0mph /  9.7km/h 15.0mph /  24.1km/h 77% 0.00in /  0mm
17:19 29.2 °F /  -1.6 °C 22.9 °F /  -5.1 °C 29.59in /  1001.9hPa WNW 8.0mph /  12.9km/h 15.0mph /  24.1km/h 77% 0.00in /  0mm
17:24 29.1 °F /  -1.6 °C 22.5 °F /  -5.3 °C 29.59in /  1001.9hPa NW 8.0mph /  12.9km/h 19.0mph /  30.6km/h 76% 0.00in /  0mm
17:29 28.9 °F /  -1.7 °C 22.0 °F /  -5.6 °C 29.60in /  1002.3hPa WNW 9.0mph /  14.5km/h 21.0mph /  33.8km/h 75% 0.00in /  0mm
17:34 28.7 °F /  -1.8 °C 21.8 °F /  -5.7 °C 29.60in /  1002.3hPa WNW 9.0mph /  14.5km/h 21.0mph /  33.8km/h 75% 0.00in /  0mm
17:39 28.5 °F /  -1.9 °C 21.6 °F /  -5.8 °C 29.61in /  1002.6hPa WNW 5.0mph /  8km/h 19.0mph /  30.6km/h 75% 0.00in /  0mm
17:44 28.1 °F /  -2.2 °C 20.9 °F /  -6.2 °C 29.61in /  1002.6hPa WNW 11.0mph /  17.7km/h 16.0mph /  25.7km/h 74% 0.00in /  0mm
17:49 27.9 °F /  -2.3 °C 21.0 °F /  -6.1 °C 29.61in /  1002.6hPa WNW 9.0mph /  14.5km/h 17.0mph /  27.4km/h 75% 0.00in /  0mm
17:54 27.8 °F /  -2.3 °C 20.9 °F /  -6.2 °C 29.61in /  1002.6hPa WSW 11.0mph /  17.7km/h 15.0mph /  24.1km/h 75% 0.00in /  0mm
17:59 27.8 °F /  -2.3 °C 20.9 °F /  -6.2 °C 29.61in /  1002.6hPa WNW 12.0mph /  19.3km/h 18.0mph /  29km/h 75% 0.00in /  0mm
18:04 27.8 °F /  -2.3 °C 20.9 °F /  -6.2 °C 29.62in /  1002.9hPa NW 11.0mph /  17.7km/h 15.0mph /  24.1km/h 75% 0.00in /  0mm
18:09 27.8 °F /  -2.3 °C 20.6 °F /  -6.3 °C 29.62in /  1002.9hPa WNW 7.0mph /  11.3km/h 15.0mph /  24.1km/h 74% 0.00in /  0mm
18:14 27.9 °F /  -2.3 °C 20.7 °F /  -6.3 °C 29.62in /  1002.9hPa WNW 8.0mph /  12.9km/h 17.0mph /  27.4km/h 74% 0.00in /  0mm
18:19 27.9 °F /  -2.3 °C 20.7 °F /  -6.3 °C 29.62in /  1002.9hPa WNW 8.0mph /  12.9km/h 14.0mph /  22.5km/h 74% 0.00in /  0mm
18:24 27.9 °F /  -2.3 °C 20.7 °F /  -6.3 °C 29.62in /  1002.9hPa WNW 7.0mph /  11.3km/h 17.0mph /  27.4km/h 74% 0.00in /  0mm
18:29 27.9 °F /  -2.3 °C 20.7 °F /  -6.3 °C 29.62in /  1002.9hPa SW 2.0mph /  3.2km/h 12.0mph /  19.3km/h 74% 0.00in /  0mm
18:34 27.9 °F /  -2.3 °C 20.7 °F /  -6.3 °C 29.63in /  1003.3hPa WNW 11.0mph /  17.7km/h 17.0mph /  27.4km/h 74% 0.00in /  0mm
18:39 27.8 °F /  -2.3 °C 20.9 °F /  -6.2 °C 29.63in /  1003.3hPa WSW 9.0mph /  14.5km/h 17.0mph /  27.4km/h 75% 0.00in /  0mm
18:44 27.7 °F /  -2.4 °C 21.1 °F /  -6.1 °C 29.63in /  1003.3hPa West 8.0mph /  12.9km/h 17.0mph /  27.4km/h 76% 0.00in /  0mm
18:49 27.7 °F /  -2.4 °C 21.1 °F /  -6.1 °C 29.63in /  1003.3hPa WNW 7.0mph /  11.3km/h 16.0mph /  25.7km/h 76% 0.00in /  0mm
18:54 27.6 °F /  -2.4 °C 21.0 °F /  -6.1 °C 29.64in /  1003.6hPa West 10.0mph /  16.1km/h 13.0mph /  20.9km/h 76% 0.00in /  0mm
18:59 27.6 °F /  -2.4 °C 21.3 °F /  -5.9 °C 29.64in /  1003.6hPa NW 6.0mph /  9.7km/h 12.0mph /  19.3km/h 77% 0.00in /  0mm
19:04 27.4 °F /  -2.6 °C 20.8 °F /  -6.2 °C 29.64in /  1003.6hPa WNW 10.0mph /  16.1km/h 18.0mph /  29km/h 76% 0.00in /  0mm
19:09 27.2 °F /  -2.7 °C 20.6 °F /  -6.3 °C 29.64in /  1003.6hPa West 12.0mph /  19.3km/h 15.0mph /  24.1km/h 76% 0.00in /  0mm
19:14 26.9 °F /  -2.8 °C 21.0 °F /  -6.1 °C 29.65in /  1003.9hPa WNW 8.0mph /  12.9km/h 16.0mph /  25.7km/h 78% 0.00in /  0mm
19:19 26.6 °F /  -3 °C 21.0 °F /  -6.1 °C 29.65in /  1003.9hPa WNW 11.0mph /  17.7km/h 17.0mph /  27.4km/h 79% 0.00in /  0mm
19:24 26.5 °F /  -3.1 °C 20.9 °F /  -6.2 °C 29.65in /  1003.9hPa NW 6.0mph /  9.7km/h 16.0mph /  25.7km/h 79% 0.00in /  0mm
19:29 26.4 °F /  -3.1 °C 21.1 °F /  -6.1 °C 29.65in /  1003.9hPa West 6.0mph /  9.7km/h 11.0mph /  17.7km/h 80% 0.00in /  0mm
19:34 26.4 °F /  -3.1 °C 21.1 °F /  -6.1 °C 29.65in /  1003.9hPa WNW 7.0mph /  11.3km/h 13.0mph /  20.9km/h 80% 0.00in /  0mm
19:39 26.3 °F /  -3.2 °C 21.0 °F /  -6.1 °C 29.65in /  1003.9hPa WNW 4.0mph /  6.4km/h 17.0mph /  27.4km/h 80% 0.00in /  0mm
19:44 26.1 °F /  -3.3 °C 21.1 °F /  -6.1 °C 29.66in /  1004.3hPa WNW 8.0mph /  12.9km/h 17.0mph /  27.4km/h 81% 0.00in /  0mm
19:49 26.0 °F /  -3.3 °C 21.3 °F /  -5.9 °C 29.66in /  1004.3hPa WNW 2.0mph /  3.2km/h 12.0mph /  19.3km/h 82% 0.00in /  0mm
19:54 25.8 °F /  -3.4 °C 21.3 °F /  -5.9 °C 29.66in /  1004.3hPa West 10.0mph /  16.1km/h 14.0mph /  22.5km/h 83% 0.00in /  0mm
19:59 25.6 °F /  -3.6 °C 21.2 °F /  -6 °C 29.66in /  1004.3hPa NNW 16.0mph /  25.7km/h 16.0mph /  25.7km/h 83% 0.00in /  0mm
20:04 25.4 °F /  -3.7 °C 21.2 °F /  -6 °C 29.66in /  1004.3hPa NW 4.0mph /  6.4km/h 16.0mph /  25.7km/h 84% 0.00in /  0mm
20:09 25.4 °F /  -3.7 °C 21.2 °F /  -6 °C 29.66in /  1004.3hPa NNW 7.0mph /  11.3km/h 12.0mph /  19.3km/h 84% 0.00in /  0mm
20:14 25.3 °F /  -3.7 °C 21.1 °F /  -6.1 °C 29.66in /  1004.3hPa West 8.0mph /  12.9km/h 13.0mph /  20.9km/h 84% 0.00in /  0mm
20:19 25.2 °F /  -3.8 °C 21.0 °F /  -6.1 °C 29.66in /  1004.3hPa NW 6.0mph /  9.7km/h 14.0mph /  22.5km/h 84% 0.00in /  0mm
20:24 25.2 °F /  -3.8 °C 21.0 °F /  -6.1 °C 29.66in /  1004.3hPa West 3.0mph /  4.8km/h 9.0mph /  14.5km/h 84% 0.00in /  0mm
20:29 25.1 °F /  -3.8 °C 20.9 °F /  -6.2 °C 29.67in /  1004.6hPa WSW 4.0mph /  6.4km/h 10.0mph /  16.1km/h 84% 0.00in /  0mm
20:34 25.1 °F /  -3.8 °C 21.2 °F /  -6 °C 29.67in /  1004.6hPa NNW 12.0mph /  19.3km/h 14.0mph /  22.5km/h 85% 0.00in /  0mm
20:39 25.0 °F /  -3.9 °C 20.8 °F /  -6.2 °C 29.67in /  1004.6hPa West 4.0mph /  6.4km/h 12.0mph /  19.3km/h 84% 0.00in /  0mm
20:44 24.9 °F /  -3.9 °C 20.5 °F /  -6.4 °C 29.67in /  1004.6hPa WNW 7.0mph /  11.3km/h 12.0mph /  19.3km/h 83% 0.00in /  0mm
20:49 24.9 °F /  -3.9 °C 20.2 °F /  -6.6 °C 29.67in /  1004.6hPa WNW 6.0mph /  9.7km/h 12.0mph /  19.3km/h 82% 0.00in /  0mm
20:54 24.9 °F /  -3.9 °C 19.9 °F /  -6.7 °C 29.67in /  1004.6hPa WNW 6.0mph /  9.7km/h 12.0mph /  19.3km/h 81% 0.00in /  0mm
20:59 24.9 °F /  -3.9 °C 19.9 °F /  -6.7 °C 29.67in /  1004.6hPa NW 6.0mph /  9.7km/h 12.0mph /  19.3km/h 81% 0.00in /  0mm
21:04 24.8 °F /  -4 °C 19.5 °F /  -6.9 °C 29.67in /  1004.6hPa WNW 5.0mph /  8km/h 13.0mph /  20.9km/h 80% 0.00in /  0mm
21:09 24.7 °F /  -4.1 °C 19.7 °F /  -6.8 °C 29.67in /  1004.6hPa NW 6.0mph /  9.7km/h 13.0mph /  20.9km/h 81% 0.00in /  0mm
21:14 24.4 °F /  -4.2 °C 19.7 °F /  -6.8 °C 29.67in /  1004.6hPa West 7.0mph /  11.3km/h 13.0mph /  20.9km/h 82% 0.00in /  0mm
21:19 24.3 °F /  -4.3 °C 19.6 °F /  -6.9 °C 29.67in /  1004.6hPa WNW 6.0mph /  9.7km/h 13.0mph /  20.9km/h 82% 0.00in /  0mm
21:24 24.3 °F /  -4.3 °C 19.6 °F /  -6.9 °C 29.67in /  1004.6hPa West 7.0mph /  11.3km/h 13.0mph /  20.9km/h 82% 0.00in /  0mm
21:29 24.2 °F /  -4.3 °C 19.2 °F /  -7.1 °C 29.68in /  1005hPa West 4.0mph /  6.4km/h 15.0mph /  24.1km/h 81% 0.00in /  0mm
21:34 24.1 °F /  -4.4 °C 19.1 °F /  -7.2 °C 29.68in /  1005hPa WNW 2.0mph /  3.2km/h 15.0mph /  24.1km/h 81% 0.00in /  0mm
21:39 24.1 °F /  -4.4 °C 19.1 °F /  -7.2 °C 29.68in /  1005hPa WNW 9.0mph /  14.5km/h 14.0mph /  22.5km/h 81% 0.00in /  0mm
21:44 24.0 °F /  -4.4 °C 19.3 °F /  -7.1 °C 29.68in /  1005hPa WNW 6.0mph /  9.7km/h 14.0mph /  22.5km/h 82% 0.00in /  0mm
21:49 24.0 °F /  -4.4 °C 19.3 °F /  -7.1 °C 29.68in /  1005hPa WNW 6.0mph /  9.7km/h 11.0mph /  17.7km/h 82% 0.00in /  0mm
21:54 24.0 °F /  -4.4 °C 19.3 °F /  -7.1 °C 29.68in /  1005hPa WNW 6.0mph /  9.7km/h 12.0mph /  19.3km/h 82% 0.00in /  0mm
21:59 23.9 °F /  -4.5 °C 19.2 °F /  -7.1 °C 29.68in /  1005hPa WNW 6.0mph /  9.7km/h 12.0mph /  19.3km/h 82% 0.00in /  0mm
22:04 23.8 °F /  -4.6 °C 19.4 °F /  -7 °C 29.68in /  1005hPa WNW 4.0mph /  6.4km/h 10.0mph /  16.1km/h 83% 0.00in /  0mm
22:09 23.6 °F /  -4.7 °C 19.2 °F /  -7.1 °C 29.68in /  1005hPa NW 4.0mph /  6.4km/h 15.0mph /  24.1km/h 83% 0.00in /  0mm
22:14 23.6 °F /  -4.7 °C 19.2 °F /  -7.1 °C 29.68in /  1005hPa West 4.0mph /  6.4km/h 10.0mph /  16.1km/h 83% 0.00in /  0mm
22:19 23.5 °F /  -4.7 °C 19.1 °F /  -7.2 °C 29.68in /  1005hPa WNW 9.0mph /  14.5km/h 9.0mph /  14.5km/h 83% 0.00in /  0mm
22:24 23.5 °F /  -4.7 °C 19.1 °F /  -7.2 °C 29.68in /  1005hPa NW 5.0mph /  8km/h 9.0mph /  14.5km/h 83% 0.00in /  0mm
22:29 23.6 °F /  -4.7 °C 19.2 °F /  -7.1 °C 29.68in /  1005hPa NW 3.0mph /  4.8km/h 13.0mph /  20.9km/h 83% 0.00in /  0mm
22:34 23.6 °F /  -4.7 °C 19.2 °F /  -7.1 °C 29.68in /  1005hPa NW 2.0mph /  3.2km/h 11.0mph /  17.7km/h 83% 0.00in /  0mm
22:39 23.7 °F /  -4.6 °C 19.3 °F /  -7.1 °C 29.68in /  1005hPa West 8.0mph /  12.9km/h 11.0mph /  17.7km/h 83% 0.00in /  0mm
22:44 23.7 °F /  -4.6 °C 19.3 °F /  -7.1 °C 29.68in /  1005hPa WNW 6.0mph /  9.7km/h 12.0mph /  19.3km/h 83% 0.00in /  0mm
22:49 23.6 °F /  -4.7 °C 19.2 °F /  -7.1 °C 29.68in /  1005hPa WNW 5.0mph /  8km/h 12.0mph /  19.3km/h 83% 0.00in /  0mm
22:54 23.6 °F /  -4.7 °C 19.5 °F /  -6.9 °C 29.68in /  1005hPa WNW 5.0mph /  8km/h 12.0mph /  19.3km/h 84% 0.00in /  0mm
22:59 23.5 °F /  -4.7 °C 19.4 °F /  -7 °C 29.68in /  1005hPa WNW 5.0mph /  8km/h 12.0mph /  19.3km/h 84% 0.00in /  0mm
23:04 23.4 °F /  -4.8 °C 19.6 °F /  -6.9 °C 29.68in /  1005hPa WNW 5.0mph /  8km/h 9.0mph /  14.5km/h 85% 0.00in /  0mm
23:09 23.4 °F /  -4.8 °C 19.6 °F /  -6.9 °C 29.68in /  1005hPa NW 3.0mph /  4.8km/h 9.0mph /  14.5km/h 85% 0.00in /  0mm
23:14 23.4 °F /  -4.8 °C 19.6 °F /  -6.9 °C 29.68in /  1005hPa West 9.0mph /  14.5km/h 9.0mph /  14.5km/h 85% 0.00in /  0mm
23:19 23.4 °F /  -4.8 °C 19.6 °F /  -6.9 °C 29.68in /  1005hPa WNW 5.0mph /  8km/h 10.0mph /  16.1km/h 85% 0.00in /  0mm
23:24 23.4 °F /  -4.8 °C 19.8 °F /  -6.8 °C 29.68in /  1005hPa WNW 5.0mph /  8km/h 10.0mph /  16.1km/h 86% 0.00in /  0mm
23:29 23.4 °F /  -4.8 °C 19.8 °F /  -6.8 °C 29.68in /  1005hPa West 3.0mph /  4.8km/h 9.0mph /  14.5km/h 86% 0.00in /  0mm
23:34 23.4 °F /  -4.8 °C 19.8 °F /  -6.8 °C 29.68in /  1005hPa West 3.0mph /  4.8km/h 8.0mph /  12.9km/h 86% 0.00in /  0mm
23:39 23.4 °F /  -4.8 °C 19.8 °F /  -6.8 °C 29.68in /  1005hPa NW 3.0mph /  4.8km/h 10.0mph /  16.1km/h 86% 0.00in /  0mm
23:44 23.4 °F /  -4.8 °C 19.8 °F /  -6.8 °C 29.68in /  1005hPa NW 6.0mph /  9.7km/h 10.0mph /  16.1km/h 86% 0.00in /  0mm
23:49 23.4 °F /  -4.8 °C 19.6 °F /  -6.9 °C 29.68in /  1005hPa WNW 4.0mph /  6.4km/h 11.0mph /  17.7km/h 85% 0.00in /  0mm
23:54 23.4 °F /  -4.8 °C 19.6 °F /  -6.9 °C 29.68in /  1005hPa WNW 7.0mph /  11.3km/h 11.0mph /  17.7km/h 85% 0.00in /  0mm
23:59 23.5 °F /  -4.7 °C 19.7 °F /  -6.8 °C 29.68in /  1005hPa WNW 5.0mph /  8km/h 11.0mph /  17.7km/h 85% 0.00in /  0mm
Buffalo, New York, USA
Compliments of Weather Underground - 2.5 mb